createdAt,value
2023-04-02T00:00:02.204Z,0.00
2023-04-02T00:01:02.228Z,0.00
2023-04-02T00:02:02.202Z,0.00
2023-04-02T00:03:02.335Z,0.00
2023-04-02T00:04:02.223Z,0.00
2023-04-02T00:05:02.198Z,0.00
2023-04-02T00:06:02.173Z,0.00
2023-04-02T00:07:02.174Z,0.00
2023-04-02T00:08:02.393Z,0.00
2023-04-02T00:09:02.159Z,0.00
2023-04-02T00:10:02.160Z,0.00
2023-04-02T00:11:02.153Z,0.00
2023-04-02T00:12:02.150Z,0.00
2023-04-02T00:13:02.145Z,0.00
2023-04-02T00:14:02.138Z,0.00
2023-04-02T00:15:02.130Z,0.00
2023-04-02T00:16:02.136Z,0.00
2023-04-02T00:17:02.121Z,0.00
2023-04-02T00:18:02.153Z,0.00
2023-04-02T00:19:02.111Z,0.00
2023-04-02T00:20:02.109Z,0.00
2023-04-02T00:21:02.208Z,0.00
2023-04-02T00:22:02.118Z,0.00
2023-04-02T00:23:02.103Z,0.00
2023-04-02T00:24:02.088Z,0.00
2023-04-02T00:25:02.100Z,0.00
2023-04-02T00:26:02.083Z,0.00
2023-04-02T00:27:02.076Z,0.00
2023-04-02T00:28:02.067Z,0.00
2023-04-02T00:29:02.145Z,0.00
2023-04-02T00:30:02.061Z,0.00
2023-04-02T00:31:02.093Z,0.00
2023-04-02T00:32:02.091Z,0.00
2023-04-02T00:33:02.063Z,0.00
2023-04-02T00:34:02.036Z,0.00
2023-04-02T00:35:02.028Z,0.00
2023-04-02T00:36:02.057Z,0.00
2023-04-02T00:37:02.061Z,0.00
2023-04-02T00:38:02.016Z,0.00
2023-04-02T00:39:02.010Z,0.00
2023-04-02T00:40:02.055Z,0.00
2023-04-02T00:41:02.003Z,0.00
2023-04-02T00:42:02.000Z,0.00
2023-04-02T00:43:01.990Z,0.00
2023-04-02T00:44:01.990Z,0.00
2023-04-02T00:45:01.985Z,0.00
2023-04-02T00:46:02.032Z,0.00
2023-04-02T00:47:01.982Z,0.00
2023-04-02T00:48:01.998Z,0.00
2023-04-02T00:49:01.960Z,0.00
2023-04-02T00:50:01.960Z,0.00
2023-04-02T00:51:01.962Z,0.00
2023-04-02T00:52:01.956Z,0.00
2023-04-02T00:53:01.964Z,0.00
2023-04-02T00:54:01.942Z,0.00
2023-04-02T00:55:01.931Z,0.00
2023-04-02T00:56:01.929Z,0.00
2023-04-02T00:57:01.970Z,0.00
2023-04-02T00:58:01.922Z,0.00
2023-04-02T00:59:01.938Z,0.00
2023-04-02T01:00:01.914Z,0.00
2023-04-02T01:01:01.958Z,0.00
2023-04-02T01:02:02.003Z,0.00
2023-04-02T01:03:01.960Z,0.00
2023-04-02T01:04:01.892Z,0.00
2023-04-02T01:05:01.880Z,0.00
2023-04-02T01:06:01.883Z,0.00
2023-04-02T01:07:01.873Z,0.00
2023-04-02T01:08:01.872Z,0.00
2023-04-02T01:09:01.888Z,0.00
2023-04-02T01:10:01.861Z,0.00
2023-04-02T01:11:01.863Z,0.00
2023-04-02T01:12:01.848Z,0.00
2023-04-02T01:13:02.188Z,0.00
2023-04-02T01:14:01.843Z,0.00
2023-04-02T01:15:01.834Z,0.00
2023-04-02T01:16:01.900Z,0.00
2023-04-02T01:17:01.838Z,0.00
2023-04-02T01:18:01.889Z,0.00
2023-04-02T01:19:01.832Z,0.00
2023-04-02T01:20:01.802Z,0.00
2023-04-02T01:21:01.803Z,0.00
2023-04-02T01:22:01.810Z,0.00
2023-04-02T01:23:01.794Z,0.00
2023-04-02T01:24:01.784Z,0.00
2023-04-02T01:25:01.835Z,0.00
2023-04-02T01:26:01.796Z,0.00
2023-04-02T01:27:01.768Z,0.00
2023-04-02T01:28:01.766Z,0.00
2023-04-02T01:29:01.759Z,0.00
2023-04-02T01:30:01.756Z,0.00
2023-04-02T01:31:01.858Z,0.00
2023-04-02T01:32:01.745Z,0.00
2023-04-02T01:33:01.771Z,0.00
2023-04-02T01:34:01.766Z,0.00
2023-04-02T01:35:01.740Z,0.00
2023-04-02T01:36:01.770Z,0.00
2023-04-02T01:37:01.722Z,0.00
2023-04-02T01:38:01.712Z,0.00
2023-04-02T01:39:01.706Z,0.00
2023-04-02T01:40:01.709Z,0.00
2023-04-02T01:41:01.715Z,0.00
2023-04-02T01:42:01.703Z,0.00
2023-04-02T01:43:01.688Z,0.00
2023-04-02T01:44:01.679Z,0.00
2023-04-02T01:45:01.683Z,0.00
2023-04-02T01:46:01.685Z,0.00
2023-04-02T01:47:01.664Z,0.00
2023-04-02T01:48:01.681Z,0.00
2023-04-02T01:49:01.655Z,0.00
2023-04-02T01:50:01.668Z,0.00
2023-04-02T01:51:01.646Z,0.00
2023-04-02T01:52:01.651Z,0.00
2023-04-02T01:53:01.635Z,0.00
2023-04-02T01:54:01.632Z,0.00
2023-04-02T01:55:01.633Z,0.00
2023-04-02T01:56:01.632Z,0.00
2023-04-02T01:57:01.672Z,0.00
2023-04-02T01:58:01.614Z,0.00
2023-04-02T01:59:01.601Z,0.00
2023-04-02T02:00:01.620Z,0.00
2023-04-02T02:01:01.617Z,0.00
2023-04-02T02:02:01.678Z,0.00
2023-04-02T02:03:01.629Z,0.00
2023-04-02T02:04:01.587Z,0.00
2023-04-02T02:05:01.568Z,0.00
2023-04-02T02:06:01.577Z,0.00
2023-04-02T02:07:01.561Z,0.00
2023-04-02T02:08:01.570Z,0.00
2023-04-02T02:09:01.546Z,0.00
2023-04-02T02:10:01.672Z,0.00
2023-04-02T02:11:01.540Z,0.00
2023-04-02T02:12:01.534Z,0.00
2023-04-02T02:13:01.545Z,0.00
2023-04-02T02:14:01.547Z,0.00
2023-04-02T02:15:01.514Z,0.00
2023-04-02T02:16:01.540Z,0.00
2023-04-02T02:17:01.512Z,0.00
2023-04-02T02:18:02.171Z,0.00
2023-04-02T02:19:01.495Z,0.00
2023-04-02T02:20:01.490Z,0.00
2023-04-02T02:21:01.485Z,0.00
2023-04-02T02:22:01.481Z,0.00
2023-04-02T02:23:01.488Z,0.00
2023-04-02T02:24:01.479Z,0.00
2023-04-02T02:25:01.470Z,0.00
2023-04-02T02:26:01.458Z,0.00
2023-04-02T02:27:01.454Z,0.00
2023-04-02T02:28:01.452Z,0.00
2023-04-02T02:29:01.475Z,0.00
2023-04-02T02:30:01.462Z,0.00
2023-04-02T02:31:01.454Z,0.00
2023-04-02T02:32:01.470Z,0.00
2023-04-02T02:33:01.446Z,0.00
2023-04-02T02:34:01.414Z,0.00
2023-04-02T02:35:01.412Z,0.00
2023-04-02T02:36:01.418Z,0.00
2023-04-02T02:37:01.396Z,0.00
2023-04-02T02:38:01.402Z,0.00
2023-04-02T02:39:01.387Z,0.00
2023-04-02T02:40:01.398Z,0.00
2023-04-02T02:41:01.377Z,0.00
2023-04-02T02:42:01.374Z,0.00
2023-04-02T02:43:01.365Z,0.00
2023-04-02T02:44:01.361Z,0.00
2023-04-02T02:45:01.381Z,0.00
2023-04-02T02:46:01.376Z,0.00
2023-04-02T02:47:01.342Z,0.00
2023-04-02T02:48:01.368Z,0.00
2023-04-02T02:49:01.334Z,0.00
2023-04-02T02:50:01.331Z,0.00
2023-04-02T02:51:01.322Z,0.00
2023-04-02T02:52:01.320Z,0.00
2023-04-02T02:53:01.308Z,0.00
2023-04-02T02:54:01.310Z,0.00
2023-04-02T02:55:01.297Z,0.00
2023-04-02T02:56:01.292Z,0.00
2023-04-02T02:57:01.344Z,0.00
2023-04-02T02:58:01.282Z,0.00
2023-04-02T02:59:01.279Z,0.00
2023-04-02T03:00:01.270Z,0.00
2023-04-02T03:01:01.305Z,0.00
2023-04-02T03:02:01.259Z,0.00
2023-04-02T03:03:01.355Z,0.00
2023-04-02T03:04:01.287Z,0.00
2023-04-02T03:05:01.244Z,0.00
2023-04-02T03:06:01.250Z,0.00
2023-04-02T03:07:01.246Z,0.00
2023-04-02T03:08:01.228Z,0.00
2023-04-02T03:09:01.246Z,0.00
2023-04-02T03:10:01.223Z,0.00
2023-04-02T03:11:01.225Z,0.00
2023-04-02T03:12:01.207Z,0.00
2023-04-02T03:13:01.215Z,0.00
2023-04-02T03:14:01.202Z,0.00
2023-04-02T03:15:01.189Z,0.00
2023-04-02T03:16:01.189Z,0.00
2023-04-02T03:17:01.194Z,0.00
2023-04-02T03:18:01.734Z,0.00
2023-04-02T03:19:01.202Z,0.00
2023-04-02T03:20:01.160Z,0.00
2023-04-02T03:21:01.163Z,0.00
2023-04-02T03:22:01.152Z,0.00
2023-04-02T03:23:01.143Z,0.00
2023-04-02T03:24:01.146Z,0.00
2023-04-02T03:25:01.134Z,0.00
2023-04-02T03:26:01.130Z,0.00
2023-04-02T03:27:01.126Z,0.00
2023-04-02T03:28:01.121Z,0.00
2023-04-02T03:29:01.126Z,0.00
2023-04-02T03:30:01.113Z,0.00
2023-04-02T03:31:01.138Z,0.00
2023-04-02T03:32:01.099Z,0.00
2023-04-02T03:33:01.130Z,0.00
2023-04-02T03:34:01.090Z,0.00
2023-04-02T03:35:01.084Z,0.00
2023-04-02T03:36:01.125Z,0.00
2023-04-02T03:37:01.070Z,0.00
2023-04-02T03:38:01.066Z,0.00
2023-04-02T03:39:01.064Z,0.00
2023-04-02T03:40:01.076Z,0.00
2023-04-02T03:41:01.048Z,0.00
2023-04-02T03:42:01.052Z,0.00
2023-04-02T03:43:01.039Z,0.00
2023-04-02T03:44:01.033Z,0.00
2023-04-02T03:45:01.047Z,0.00
2023-04-02T03:46:01.056Z,0.00
2023-04-02T03:47:01.016Z,0.00
2023-04-02T03:48:01.041Z,0.00
2023-04-02T03:49:01.024Z,0.00
2023-04-02T03:50:01.003Z,0.00
2023-04-02T03:51:01.011Z,0.00
2023-04-02T03:52:00.989Z,0.00
2023-04-02T03:53:00.987Z,0.00
2023-04-02T03:54:01.007Z,0.00
2023-04-02T03:55:00.999Z,0.00
2023-04-02T03:56:00.994Z,0.00
2023-04-02T03:57:00.987Z,0.00
2023-04-02T03:58:00.963Z,0.00
2023-04-02T03:59:00.969Z,0.00
2023-04-02T04:00:00.959Z,0.00
2023-04-02T04:01:00.948Z,0.00
2023-04-02T04:02:00.993Z,0.00
2023-04-02T04:03:00.942Z,0.00
2023-04-02T04:04:00.940Z,0.00
2023-04-02T04:05:00.936Z,0.00
2023-04-02T04:06:00.913Z,0.00
2023-04-02T04:07:00.912Z,0.00
2023-04-02T04:08:00.900Z,0.00
2023-04-02T04:09:00.894Z,0.00
2023-04-02T04:10:00.890Z,0.00
2023-04-02T04:11:00.888Z,0.00
2023-04-02T04:12:00.880Z,0.00
2023-04-02T04:13:00.876Z,0.00
2023-04-02T04:14:00.876Z,0.00
2023-04-02T04:15:00.865Z,0.00
2023-04-02T04:16:00.853Z,0.00
2023-04-02T04:17:00.848Z,0.00
2023-04-02T04:18:00.859Z,0.00
2023-04-02T04:19:00.835Z,0.00
2023-04-02T04:20:00.827Z,0.00
2023-04-02T04:21:00.850Z,0.00
2023-04-02T04:22:00.817Z,0.00
2023-04-02T04:23:01.060Z,0.00
2023-04-02T04:24:00.807Z,0.00
2023-04-02T04:25:00.801Z,0.00
2023-04-02T04:26:00.794Z,0.00
2023-04-02T04:27:00.791Z,0.00
2023-04-02T04:28:00.780Z,0.00
2023-04-02T04:29:00.808Z,0.00
2023-04-02T04:30:00.769Z,0.00
2023-04-02T04:31:00.777Z,0.00
2023-04-02T04:32:00.768Z,0.00
2023-04-02T04:33:00.825Z,0.00
2023-04-02T04:34:00.757Z,0.00
2023-04-02T04:35:00.749Z,0.00
2023-04-02T04:36:00.801Z,0.00
2023-04-02T04:37:00.752Z,0.00
2023-04-02T04:38:00.730Z,0.00
2023-04-02T04:39:00.720Z,0.00
2023-04-02T04:40:00.715Z,0.00
2023-04-02T04:41:00.708Z,0.00
2023-04-02T04:42:00.709Z,0.00
2023-04-02T04:43:00.697Z,0.00
2023-04-02T04:44:00.688Z,0.00
2023-04-02T04:45:00.693Z,0.00
2023-04-02T04:46:00.728Z,0.00
2023-04-02T04:47:00.677Z,0.00
2023-04-02T04:48:00.701Z,0.00
2023-04-02T04:49:00.670Z,0.00
2023-04-02T04:50:00.653Z,0.00
2023-04-02T04:51:00.657Z,0.00
2023-04-02T04:52:00.640Z,0.00
2023-04-02T04:53:00.661Z,0.00
2023-04-02T04:54:00.633Z,0.00
2023-04-02T04:55:00.634Z,0.00
2023-04-02T04:56:16.089Z,0.00
2023-04-02T04:57:00.636Z,0.00
2023-04-02T04:58:00.626Z,0.00
2023-04-02T04:59:00.605Z,0.00
2023-04-02T05:00:00.603Z,4.00
2023-04-02T05:01:00.590Z,4.00
2023-04-02T05:02:00.585Z,4.00
2023-04-02T05:03:00.611Z,0.00
2023-04-02T05:04:00.570Z,0.00
2023-04-02T05:05:00.707Z,0.00
2023-04-02T05:06:00.555Z,0.00
2023-04-02T05:07:00.552Z,4.00
2023-04-02T05:08:00.548Z,4.00
2023-04-02T05:09:00.560Z,4.00
2023-04-02T05:10:00.547Z,4.00
2023-04-02T05:11:00.530Z,4.00
2023-04-02T05:12:00.527Z,4.00
2023-04-02T05:13:00.520Z,4.00
2023-04-02T05:14:00.512Z,4.00
2023-04-02T05:15:00.517Z,4.00
2023-04-02T05:16:01.427Z,4.00
2023-04-02T05:17:00.485Z,4.00
2023-04-02T05:18:00.506Z,4.00
2023-04-02T05:19:00.476Z,8.00
2023-04-02T05:20:00.482Z,8.00
2023-04-02T05:21:00.460Z,8.00
2023-04-02T05:22:00.486Z,8.00
2023-04-02T05:23:00.448Z,12.00
2023-04-02T05:24:00.444Z,12.00
2023-04-02T05:25:00.458Z,8.00
2023-04-02T05:26:00.435Z,12.00
2023-04-02T05:27:00.427Z,12.00
2023-04-02T05:28:00.418Z,16.00
2023-04-02T05:29:00.416Z,12.00
2023-04-02T05:30:00.418Z,12.00
2023-04-02T05:31:00.429Z,16.00
2023-04-02T05:32:00.402Z,20.00
2023-04-02T05:33:00.460Z,20.00
2023-04-02T05:34:00.390Z,16.00
2023-04-02T05:35:00.373Z,16.00
2023-04-02T05:36:00.403Z,16.00
2023-04-02T05:37:00.364Z,12.00
2023-04-02T05:38:00.368Z,12.00
2023-04-02T05:39:00.365Z,12.00
2023-04-02T05:40:00.351Z,12.00
2023-04-02T05:41:00.361Z,12.00
2023-04-02T05:42:00.340Z,12.00
2023-04-02T05:43:00.327Z,12.00
2023-04-02T05:44:00.317Z,12.00
2023-04-02T05:45:00.326Z,12.00
2023-04-02T05:46:00.317Z,12.00
2023-04-02T05:47:00.364Z,16.00
2023-04-02T05:48:00.377Z,16.00
2023-04-02T05:49:00.307Z,16.00
2023-04-02T05:50:00.283Z,16.00
2023-04-02T05:51:00.290Z,16.00
2023-04-02T05:52:00.290Z,20.00
2023-04-02T05:53:00.268Z,20.00
2023-04-02T05:54:00.264Z,20.00
2023-04-02T05:55:00.257Z,20.00
2023-04-02T05:56:00.243Z,20.00
2023-04-02T05:57:00.297Z,20.00
2023-04-02T05:58:21.118Z,20.00
2023-04-02T05:59:00.350Z,20.00
2023-04-02T06:00:00.220Z,24.00
2023-04-02T06:01:00.210Z,28.00
2023-04-02T06:02:00.350Z,28.00
2023-04-02T06:03:00.269Z,24.00
2023-04-02T06:04:00.240Z,28.00
2023-04-02T06:05:00.200Z,28.00
2023-04-02T06:06:00.204Z,32.00
2023-04-02T06:07:00.176Z,28.00
2023-04-02T06:08:00.174Z,32.00
2023-04-02T06:09:00.161Z,32.00
2023-04-02T06:10:00.170Z,32.00
2023-04-02T06:11:00.152Z,28.00
2023-04-02T06:12:00.154Z,32.00
2023-04-02T06:13:00.156Z,32.00
2023-04-02T06:14:00.132Z,28.00
2023-04-02T06:15:00.145Z,36.00
2023-04-02T06:16:00.122Z,44.00
2023-04-02T06:17:00.180Z,40.00
2023-04-02T06:18:00.157Z,36.00
2023-04-02T06:19:00.101Z,40.00
2023-04-02T06:20:00.133Z,48.00
2023-04-02T06:21:00.117Z,48.00
2023-04-02T06:22:00.115Z,44.00
2023-04-02T06:23:00.089Z,44.00
2023-04-02T06:24:00.074Z,44.00
2023-04-02T06:25:00.083Z,40.00
2023-04-02T06:26:00.097Z,48.00
2023-04-02T06:27:00.062Z,56.00
2023-04-02T06:28:00.244Z,48.00
2023-04-02T06:29:00.066Z,60.00
2023-04-02T06:30:00.073Z,56.00
2023-04-02T06:31:00.096Z,60.00
2023-04-02T06:32:00.023Z,56.00
2023-04-02T06:33:00.089Z,60.00
2023-04-02T06:34:00.029Z,60.00
2023-04-02T06:35:00.016Z,64.00
2023-04-02T06:36:00.039Z,64.00
2023-04-02T06:37:00.007Z,68.00
2023-04-02T06:37:59.998Z,76.00
2023-04-02T06:38:59.983Z,72.00
2023-04-02T06:39:59.979Z,72.00
2023-04-02T06:40:59.988Z,72.00
2023-04-02T06:41:59.957Z,76.00
2023-04-02T06:42:59.966Z,92.00
2023-04-02T06:43:59.948Z,92.00
2023-04-02T06:44:59.960Z,92.00
2023-04-02T06:45:59.950Z,96.00
2023-04-02T06:46:59.930Z,116.00
2023-04-02T06:47:59.993Z,128.00
2023-04-02T06:48:59.917Z,144.00
2023-04-02T06:49:59.910Z,160.00
2023-04-02T06:50:59.905Z,180.00
2023-04-02T06:51:59.902Z,152.00
2023-04-02T06:52:59.898Z,120.00
2023-04-02T06:53:59.889Z,112.00
2023-04-02T06:54:59.937Z,124.00
2023-04-02T06:55:59.876Z,104.00
2023-04-02T06:56:59.906Z,112.00
2023-04-02T06:57:59.867Z,96.00
2023-04-02T06:58:59.868Z,100.00
2023-04-02T06:59:59.852Z,100.00
2023-04-02T07:00:59.872Z,100.00
2023-04-02T07:01:59.887Z,108.00
2023-04-02T07:02:59.911Z,100.00
2023-04-02T07:03:59.839Z,108.00
2023-04-02T07:04:59.893Z,116.00
2023-04-02T07:05:59.829Z,124.00
2023-04-02T07:06:59.820Z,116.00
2023-04-02T07:07:59.803Z,132.00
2023-04-02T07:08:59.800Z,128.00
2023-04-02T07:09:59.783Z,116.00
2023-04-02T07:10:59.807Z,120.00
2023-04-02T07:11:59.779Z,128.00
2023-04-02T07:12:59.769Z,132.00
2023-04-02T07:13:59.762Z,148.00
2023-04-02T07:14:59.754Z,140.00
2023-04-02T07:15:59.795Z,160.00
2023-04-02T07:16:59.780Z,188.00
2023-04-02T07:17:59.785Z,188.00
2023-04-02T07:18:59.732Z,180.00
2023-04-02T07:19:59.723Z,176.00
2023-04-02T07:20:59.716Z,180.00
2023-04-02T07:21:59.715Z,204.00
2023-04-02T07:22:59.708Z,188.00
2023-04-02T07:23:59.698Z,212.00
2023-04-02T07:24:59.695Z,212.00
2023-04-02T07:25:59.686Z,216.00
2023-04-02T07:26:59.686Z,208.00
2023-04-02T07:27:59.670Z,236.00
2023-04-02T07:28:59.669Z,208.00
2023-04-02T07:29:59.665Z,220.00
2023-04-02T07:30:59.682Z,268.00
2023-04-02T07:31:59.648Z,220.00
2023-04-02T07:32:59.696Z,252.00
2023-04-02T07:33:59.641Z,248.00
2023-04-02T07:34:59.629Z,236.00
2023-04-02T07:35:59.649Z,240.00
2023-04-02T07:36:59.618Z,244.00
2023-04-02T07:37:59.610Z,220.00
2023-04-02T07:38:59.609Z,216.00
2023-04-02T07:39:59.604Z,224.00
2023-04-02T07:40:59.593Z,228.00
2023-04-02T07:41:59.601Z,232.00
2023-04-02T07:42:59.587Z,240.00
2023-04-02T07:43:59.595Z,228.00
2023-04-02T07:44:59.571Z,216.00
2023-04-02T07:45:59.565Z,240.00
2023-04-02T07:46:59.730Z,280.00
2023-04-02T07:47:59.561Z,264.00
2023-04-02T07:48:59.563Z,256.00
2023-04-02T07:49:59.538Z,264.00
2023-04-02T07:50:59.534Z,248.00
2023-04-02T07:51:59.527Z,252.00
2023-04-02T07:52:59.518Z,252.00
2023-04-02T07:53:59.512Z,264.00
2023-04-02T07:54:59.509Z,272.00
2023-04-02T07:55:59.505Z,228.00
2023-04-02T07:56:59.604Z,244.00
2023-04-02T07:57:59.490Z,232.00
2023-04-02T07:58:59.483Z,256.00
2023-04-02T07:59:59.477Z,248.00
2023-04-02T08:00:59.478Z,320.00
2023-04-02T08:01:59.484Z,264.00
2023-04-02T08:02:59.557Z,268.00
2023-04-02T08:03:59.511Z,240.00
2023-04-02T08:04:59.465Z,240.00
2023-04-02T08:05:59.461Z,244.00
2023-04-02T08:06:59.433Z,212.00
2023-04-02T08:07:59.423Z,228.00
2023-04-02T08:08:59.426Z,236.00
2023-04-02T08:09:59.411Z,252.00
2023-04-02T08:10:59.408Z,244.00
2023-04-02T08:11:59.411Z,276.00
2023-04-02T08:12:59.423Z,244.00
2023-04-02T08:13:59.392Z,260.00
2023-04-02T08:14:59.383Z,288.00
2023-04-02T08:15:59.415Z,304.00
2023-04-02T08:16:59.481Z,320.00
2023-04-02T08:17:59.391Z,416.00
2023-04-02T08:18:59.387Z,428.00
2023-04-02T08:19:59.356Z,452.00
2023-04-02T08:20:59.364Z,480.00
2023-04-02T08:21:59.338Z,484.00
2023-04-02T08:22:59.336Z,544.00
2023-04-02T08:23:59.326Z,616.00
2023-04-02T08:24:59.327Z,584.00
2023-04-02T08:25:59.317Z,516.00
2023-04-02T08:26:59.317Z,500.00
2023-04-02T08:27:59.306Z,444.00
2023-04-02T08:28:59.307Z,540.00
2023-04-02T08:29:59.291Z,576.00
2023-04-02T08:30:59.342Z,604.00
2023-04-02T08:31:59.278Z,528.00
2023-04-02T08:32:59.564Z,524.00
2023-04-02T08:33:59.264Z,468.00
2023-04-02T08:34:59.259Z,416.00
2023-04-02T08:35:59.274Z,404.00
2023-04-02T08:36:59.267Z,360.00
2023-04-02T08:37:59.242Z,356.00
2023-04-02T08:38:59.238Z,388.00
2023-04-02T08:39:59.225Z,380.00
2023-04-02T08:40:59.231Z,416.00
2023-04-02T08:41:59.216Z,376.00
2023-04-02T08:42:59.212Z,404.00
2023-04-02T08:43:59.202Z,460.00
2023-04-02T08:44:59.222Z,400.00
2023-04-02T08:45:59.227Z,392.00
2023-04-02T08:46:59.195Z,392.00
2023-04-02T08:47:59.253Z,376.00
2023-04-02T08:48:59.206Z,320.00
2023-04-02T08:49:59.165Z,356.00
2023-04-02T08:50:59.156Z,404.00
2023-04-02T08:51:59.156Z,400.00
2023-04-02T08:52:59.164Z,412.00
2023-04-02T08:53:59.146Z,384.00
2023-04-02T08:54:59.134Z,436.00
2023-04-02T08:55:59.130Z,464.00
2023-04-02T08:56:59.127Z,536.00
2023-04-02T08:57:59.125Z,468.00
2023-04-02T08:58:59.109Z,440.00
2023-04-02T08:59:59.107Z,444.00
2023-04-02T09:00:59.109Z,468.00
2023-04-02T09:01:59.159Z,492.00
2023-04-02T09:02:59.145Z,540.00
2023-04-02T09:03:59.111Z,480.00
2023-04-02T09:04:59.133Z,476.00
2023-04-02T09:05:59.072Z,516.00
2023-04-02T09:06:59.060Z,460.00
2023-04-02T09:07:59.057Z,428.00
2023-04-02T09:08:59.075Z,484.00
2023-04-02T09:09:59.045Z,480.00
2023-04-02T09:10:59.040Z,500.00
2023-04-02T09:11:59.031Z,468.00
2023-04-02T09:12:59.025Z,452.00
2023-04-02T09:13:59.019Z,404.00
2023-04-02T09:14:59.016Z,544.00
2023-04-02T09:15:59.025Z,496.00
2023-04-02T09:16:59.004Z,456.00
2023-04-02T09:17:59.629Z,476.00
2023-04-02T09:18:58.992Z,544.00
2023-04-02T09:19:59.019Z,576.00
2023-04-02T09:20:58.979Z,520.00
2023-04-02T09:21:58.981Z,600.00
2023-04-02T09:22:59.020Z,536.00
2023-04-02T09:23:58.964Z,496.00
2023-04-02T09:24:58.976Z,536.00
2023-04-02T09:26:04.672Z,680.00
2023-04-02T09:26:58.952Z,568.00
2023-04-02T09:27:58.950Z,540.00
2023-04-02T09:28:58.934Z,600.00
2023-04-02T09:29:58.927Z,604.00
2023-04-02T09:30:58.919Z,820.00
2023-04-02T09:31:59.010Z,516.00
2023-04-02T09:32:58.964Z,632.00
2023-04-02T09:33:58.903Z,584.00
2023-04-02T09:34:58.912Z,692.00
2023-04-02T09:35:58.927Z,920.00
2023-04-02T09:36:58.883Z,704.00
2023-04-02T09:37:58.882Z,596.00
2023-04-02T09:38:58.872Z,1000.00
2023-04-02T09:39:58.878Z,760.00
2023-04-02T09:40:58.887Z,708.00
2023-04-02T09:42:05.566Z,892.00
2023-04-02T09:42:58.855Z,840.00
2023-04-02T09:43:58.846Z,756.00
2023-04-02T09:44:58.845Z,688.00
2023-04-02T09:45:58.833Z,748.00
2023-04-02T09:46:58.949Z,832.00
2023-04-02T09:47:58.895Z,688.00
2023-04-02T09:48:58.814Z,756.00
2023-04-02T09:49:58.816Z,604.00
2023-04-02T09:50:58.802Z,716.00
2023-04-02T09:51:58.798Z,596.00
2023-04-02T09:52:58.790Z,656.00
2023-04-02T09:53:58.781Z,612.00
2023-04-02T09:54:58.774Z,656.00
2023-04-02T09:55:58.766Z,744.00
2023-04-02T09:56:58.797Z,1368.00
2023-04-02T09:58:00.374Z,1152.00
2023-04-02T09:58:58.752Z,828.00
2023-04-02T09:59:58.743Z,984.00
2023-04-02T10:00:58.771Z,1404.00
2023-04-02T10:01:58.741Z,1172.00
2023-04-02T10:02:58.764Z,980.00
2023-04-02T10:03:58.848Z,964.00
2023-04-02T10:04:58.723Z,968.00
2023-04-02T10:05:58.707Z,808.00
2023-04-02T10:06:58.700Z,944.00
2023-04-02T10:07:58.697Z,1152.00
2023-04-02T10:08:58.692Z,1004.00
2023-04-02T10:09:58.681Z,1428.00
2023-04-02T10:10:58.675Z,1268.00
2023-04-02T10:11:58.686Z,964.00
2023-04-02T10:12:58.681Z,1064.00
2023-04-02T10:13:58.658Z,1212.00
2023-04-02T10:14:58.650Z,1312.00
2023-04-02T10:15:58.667Z,1292.00
2023-04-02T10:16:58.653Z,1560.00
2023-04-02T10:17:58.655Z,1852.00
2023-04-02T10:18:58.659Z,1540.00
2023-04-02T10:19:58.627Z,1200.00
2023-04-02T10:20:58.622Z,1256.00
2023-04-02T10:21:58.617Z,1164.00
2023-04-02T10:22:58.609Z,1164.00
2023-04-02T10:23:58.606Z,1296.00
2023-04-02T10:24:58.594Z,1112.00
2023-04-02T10:25:58.597Z,944.00
2023-04-02T10:26:58.584Z,992.00
2023-04-02T10:27:58.588Z,856.00
2023-04-02T10:28:58.595Z,1104.00
2023-04-02T10:29:58.569Z,1032.00
2023-04-02T10:30:58.609Z,948.00
2023-04-02T10:31:58.560Z,912.00
2023-04-02T10:32:58.592Z,1032.00
2023-04-02T10:33:58.554Z,1008.00
2023-04-02T10:34:58.570Z,992.00
2023-04-02T10:35:58.586Z,1240.00
2023-04-02T10:36:58.523Z,1132.00
2023-04-02T10:37:58.969Z,1148.00
2023-04-02T10:38:58.519Z,1364.00
2023-04-02T10:39:58.513Z,1024.00
2023-04-02T10:40:58.500Z,936.00
2023-04-02T10:41:58.502Z,908.00
2023-04-02T10:42:58.497Z,1220.00
2023-04-02T10:44:06.136Z,1176.00
2023-04-02T10:44:58.499Z,1000.00
2023-04-02T10:45:58.537Z,1200.00
2023-04-02T10:46:58.475Z,1452.00
2023-04-02T10:47:58.471Z,1296.00
2023-04-02T10:48:58.461Z,1268.00
2023-04-02T10:49:58.451Z,1420.00
2023-04-02T10:50:58.445Z,1108.00
2023-04-02T10:51:58.437Z,1304.00
2023-04-02T10:52:58.431Z,1204.00
2023-04-02T10:53:58.438Z,992.00
2023-04-02T10:54:58.422Z,956.00
2023-04-02T10:55:58.418Z,1040.00
2023-04-02T10:56:58.428Z,868.00
2023-04-02T10:57:58.416Z,952.00
2023-04-02T10:58:58.417Z,824.00
2023-04-02T10:59:58.393Z,960.00
2023-04-02T11:00:58.405Z,960.00
2023-04-02T11:01:58.485Z,848.00
2023-04-02T11:02:58.422Z,780.00
2023-04-02T11:03:58.475Z,1000.00
2023-04-02T11:04:59.878Z,928.00
2023-04-02T11:05:58.369Z,1036.00
2023-04-02T11:07:11.182Z,1084.00
2023-04-02T11:07:58.345Z,1008.00
2023-04-02T11:08:58.337Z,968.00
2023-04-02T11:09:58.336Z,968.00
2023-04-02T11:10:58.332Z,840.00
2023-04-02T11:11:58.324Z,960.00
2023-04-02T11:12:58.315Z,876.00
2023-04-02T11:13:58.321Z,944.00
2023-04-02T11:14:58.305Z,768.00
2023-04-02T11:15:58.323Z,1068.00
2023-04-02T11:16:58.336Z,852.00
2023-04-02T11:17:58.344Z,876.00
2023-04-02T11:18:58.280Z,832.00
2023-04-02T11:19:58.278Z,836.00
2023-04-02T11:20:58.276Z,824.00
2023-04-02T11:21:59.913Z,868.00
2023-04-02T11:22:58.259Z,824.00
2023-04-02T11:23:58.252Z,832.00
2023-04-02T11:24:58.246Z,868.00
2023-04-02T11:25:58.246Z,912.00
2023-04-02T11:26:58.239Z,884.00
2023-04-02T11:27:58.230Z,788.00
2023-04-02T11:28:58.223Z,872.00
2023-04-02T11:29:58.235Z,852.00
2023-04-02T11:30:58.237Z,848.00
2023-04-02T11:31:58.207Z,852.00
2023-04-02T11:32:58.245Z,812.00
2023-04-02T11:33:58.197Z,800.00
2023-04-02T11:35:06.359Z,812.00
2023-04-02T11:35:58.212Z,828.00
2023-04-02T11:36:58.176Z,936.00
2023-04-02T11:37:58.547Z,912.00
2023-04-02T11:39:07.406Z,824.00
2023-04-02T11:39:58.167Z,884.00
2023-04-02T11:40:58.175Z,872.00
2023-04-02T11:41:58.151Z,928.00
2023-04-02T11:42:58.145Z,1116.00
2023-04-02T11:43:58.138Z,1160.00
2023-04-02T11:44:58.142Z,1124.00
2023-04-02T11:45:58.365Z,1052.00
2023-04-02T11:46:58.137Z,1028.00
2023-04-02T11:47:58.174Z,1064.00
2023-04-02T11:48:58.131Z,1076.00
2023-04-02T11:49:58.109Z,1180.00
2023-04-02T11:50:58.104Z,1064.00
2023-04-02T11:52:10.938Z,908.00
2023-04-02T11:52:58.100Z,820.00
2023-04-02T11:53:58.089Z,868.00
2023-04-02T11:54:58.110Z,780.00
2023-04-02T11:55:58.075Z,888.00
2023-04-02T11:56:58.114Z,932.00
2023-04-02T11:57:58.068Z,900.00
2023-04-02T11:58:58.055Z,852.00
2023-04-02T11:59:58.049Z,792.00
2023-04-02T12:00:58.043Z,916.00
2023-04-02T12:01:58.055Z,824.00
2023-04-02T12:02:58.053Z,868.00
2023-04-02T12:03:58.030Z,776.00
2023-04-02T12:04:58.095Z,700.00
2023-04-02T12:05:58.012Z,720.00
2023-04-02T12:06:58.015Z,852.00
2023-04-02T12:07:58.041Z,932.00
2023-04-02T12:08:58.435Z,760.00
2023-04-02T12:09:58.012Z,736.00
2023-04-02T12:10:57.999Z,812.00
2023-04-02T12:11:57.988Z,728.00
2023-04-02T12:12:58.003Z,744.00
2023-04-02T12:13:57.974Z,836.00
2023-04-02T12:14:57.966Z,880.00
2023-04-02T12:15:57.961Z,844.00
2023-04-02T12:16:58.035Z,852.00
2023-04-02T12:17:57.980Z,904.00
2023-04-02T12:18:57.942Z,796.00
2023-04-02T12:19:57.933Z,812.00
2023-04-02T12:20:57.950Z,808.00
2023-04-02T12:21:57.923Z,768.00
2023-04-02T12:22:57.917Z,656.00
2023-04-02T12:23:57.912Z,816.00
2023-04-02T12:24:57.904Z,708.00
2023-04-02T12:25:57.905Z,732.00
2023-04-02T12:26:57.900Z,592.00
2023-04-02T12:27:57.892Z,620.00
2023-04-02T12:28:57.887Z,608.00
2023-04-02T12:29:57.878Z,656.00
2023-04-02T12:30:57.882Z,644.00
2023-04-02T12:31:57.871Z,696.00
2023-04-02T12:32:57.886Z,624.00
2023-04-02T12:33:57.856Z,564.00
2023-04-02T12:34:57.856Z,612.00
2023-04-02T12:35:57.882Z,616.00
2023-04-02T12:36:57.860Z,596.00
2023-04-02T12:37:57.843Z,644.00
2023-04-02T12:38:57.844Z,600.00
2023-04-02T12:39:57.868Z,616.00
2023-04-02T12:40:57.819Z,616.00
2023-04-02T12:41:57.813Z,656.00
2023-04-02T12:42:58.169Z,492.00
2023-04-02T12:43:57.801Z,656.00
2023-04-02T12:44:57.803Z,540.00
2023-04-02T12:45:57.817Z,516.00
2023-04-02T12:46:57.789Z,648.00
2023-04-02T12:47:57.851Z,588.00
2023-04-02T12:48:57.771Z,572.00